sensor_id;sensor_type;location;lat;lon;timestamp;pressure;altitude;pressure_sealevel;temperature;humidity
4410;BME280;2218;51.408;7.208;2023-07-31T00:01:58;99285.28;;;21.58;60.73
4410;BME280;2218;51.408;7.208;2023-07-31T00:04:26;99286.09;;;21.59;61.18
4410;BME280;2218;51.408;7.208;2023-07-31T00:06:53;99292.22;;;21.59;60.95
4410;BME280;2218;51.408;7.208;2023-07-31T00:09:20;99286.09;;;21.59;61.22
4410;BME280;2218;51.408;7.208;2023-07-31T00:11:47;99282.63;;;21.58;60.78
4410;BME280;2218;51.408;7.208;2023-07-31T00:14:14;99284.41;;;21.58;60.77
4410;BME280;2218;51.408;7.208;2023-07-31T00:16:41;99280.81;;;21.59;60.99
4410;BME280;2218;51.408;7.208;2023-07-31T00:19:08;99280.00;;;21.58;61.18
4410;BME280;2218;51.408;7.208;2023-07-31T00:21:36;99277.34;;;21.58;61.34
4410;BME280;2218;51.408;7.208;2023-07-31T00:24:03;99286.09;;;21.59;60.98
4410;BME280;2218;51.408;7.208;2023-07-31T00:26:30;99273.00;;;21.57;61.44
4410;BME280;2218;51.408;7.208;2023-07-31T00:28:58;99273.84;;;21.58;61.01
4410;BME280;2218;51.408;7.208;2023-07-31T00:31:25;99273.00;;;21.57;61.32
4410;BME280;2218;51.408;7.208;2023-07-31T00:33:52;99274.69;;;21.58;61.02
4410;BME280;2218;51.408;7.208;2023-07-31T00:36:19;99266.88;;;21.57;61.26
4410;BME280;2218;51.408;7.208;2023-07-31T00:38:47;99265.22;;;21.56;61.41
4410;BME280;2218;51.408;7.208;2023-07-31T00:41:14;99272.16;;;21.57;61.55
4410;BME280;2218;51.408;7.208;2023-07-31T00:43:41;99277.44;;;21.57;61.55
4410;BME280;2218;51.408;7.208;2023-07-31T00:46:08;99272.16;;;21.57;61.51
4410;BME280;2218;51.408;7.208;2023-07-31T00:48:37;99281.78;;;21.58;61.11
4410;BME280;2218;51.408;7.208;2023-07-31T00:51:07;99275.66;;;21.57;61.50
4410;BME280;2218;51.408;7.208;2023-07-31T00:53:34;99270.50;;;21.56;61.74
4410;BME280;2218;51.408;7.208;2023-07-31T00:56:03;99265.22;;;21.56;61.51
4410;BME280;2218;51.408;7.208;2023-07-31T00:58:31;99262.56;;;21.56;61.27
4410;BME280;2218;51.408;7.208;2023-07-31T01:00:58;99267.84;;;21.56;61.26
4410;BME280;2218;51.408;7.208;2023-07-31T01:03:25;99261.59;;;21.57;61.68
4410;BME280;2218;51.408;7.208;2023-07-31T01:06:09;99266.19;;;21.55;61.67
4410;BME280;2218;51.408;7.208;2023-07-31T01:08:46;99263.53;;;21.55;61.41
4410;BME280;2218;51.408;7.208;2023-07-31T01:11:27;99265.22;;;21.56;61.52
4410;BME280;2218;51.408;7.208;2023-07-31T01:13:55;99274.94;;;21.55;61.75
4410;BME280;2218;51.408;7.208;2023-07-31T01:16:24;99274.13;;;21.55;61.22
4410;BME280;2218;51.408;7.208;2023-07-31T01:18:51;99274.94;;;21.55;61.19
4410;BME280;2218;51.408;7.208;2023-07-31T01:21:51;99258.25;;;21.55;61.14
4410;BME280;2218;51.408;7.208;2023-07-31T01:24:30;99259.91;;;21.56;61.22
4410;BME280;2218;51.408;7.208;2023-07-31T01:27:10;99256.59;;;21.54;61.71
4410;BME280;2218;51.408;7.208;2023-07-31T01:29:47;99257.41;;;21.54;61.21
4410;BME280;2218;51.408;7.208;2023-07-31T01:32:18;99262.72;;;21.54;61.31
4410;BME280;2218;51.408;7.208;2023-07-31T01:34:47;99273.28;;;21.54;61.68
4410;BME280;2218;51.408;7.208;2023-07-31T01:37:15;99268.97;;;21.53;61.32
4410;BME280;2218;51.408;7.208;2023-07-31T01:39:42;99277.75;;;21.54;61.60
4410;BME280;2218;51.408;7.208;2023-07-31T01:42:12;99275.09;;;21.54;61.28
4410;BME280;2218;51.408;7.208;2023-07-31T01:44:39;99258.50;;;21.52;61.26
4410;BME280;2218;51.408;7.208;2023-07-31T01:47:06;99264.50;;;21.54;61.56
4410;BME280;2218;51.408;7.208;2023-07-31T01:49:33;99260.16;;;21.53;61.41
4410;BME280;2218;51.408;7.208;2023-07-31T01:52:00;99259.34;;;21.52;61.44
4410;BME280;2218;51.408;7.208;2023-07-31T01:54:27;99254.06;;;21.52;61.21
4410;BME280;2218;51.408;7.208;2023-07-31T01:56:54;99259.34;;;21.52;61.93
4410;BME280;2218;51.408;7.208;2023-07-31T01:59:22;99262.81;;;21.53;61.35
4410;BME280;2218;51.408;7.208;2023-07-31T02:01:49;99254.06;;;21.52;61.30
4410;BME280;2218;51.408;7.208;2023-07-31T02:04:16;99253.22;;;21.52;61.23
4410;BME280;2218;51.408;7.208;2023-07-31T02:06:44;99248.91;;;21.51;61.48
4410;BME280;2218;51.408;7.208;2023-07-31T02:09:11;99248.91;;;21.51;61.77
4410;BME280;2218;51.408;7.208;2023-07-31T02:11:38;99246.94;;;21.53;61.23
4410;BME280;2218;51.408;7.208;2023-07-31T02:14:05;99245.28;;;21.52;61.53
4410;BME280;2218;51.408;7.208;2023-07-31T02:16:33;99243.63;;;21.51;61.45
4410;BME280;2218;51.408;7.208;2023-07-31T02:19:00;99246.13;;;21.52;61.16
4410;BME280;2218;51.408;7.208;2023-07-31T02:21:27;99240.97;;;21.51;61.61
4410;BME280;2218;51.408;7.208;2023-07-31T02:23:54;99230.41;;;21.51;61.66
4410;BME280;2218;51.408;7.208;2023-07-31T02:26:21;99240.97;;;21.51;61.32
4410;BME280;2218;51.408;7.208;2023-07-31T02:28:48;99238.31;;;21.51;61.15
4410;BME280;2218;51.408;7.208;2023-07-31T02:31:15;99239.16;;;21.51;61.48
4410;BME280;2218;51.408;7.208;2023-07-31T02:33:43;99241.94;;;21.50;61.69
4410;BME280;2218;51.408;7.208;2023-07-31T02:36:10;99236.66;;;21.50;61.67
4410;BME280;2218;51.408;7.208;2023-07-31T02:38:37;99244.59;;;21.50;61.67
4410;BME280;2218;51.408;7.208;2023-07-31T02:41:06;99239.31;;;21.50;61.61
4410;BME280;2218;51.408;7.208;2023-07-31T02:43:33;99236.66;;;21.50;61.16
4410;BME280;2218;51.408;7.208;2023-07-31T02:46:00;99240.13;;;21.50;61.57
4410;BME280;2218;51.408;7.208;2023-07-31T02:48:27;99244.59;;;21.50;61.59
4410;BME280;2218;51.408;7.208;2023-07-31T02:50:55;99229.72;;;21.49;61.72
4410;BME280;2218;51.408;7.208;2023-07-31T02:53:22;99237.63;;;21.49;61.74
4410;BME280;2218;51.408;7.208;2023-07-31T02:55:49;99233.19;;;21.49;61.43
4410;BME280;2218;51.408;7.208;2023-07-31T02:58:16;99231.38;;;21.50;61.26
4410;BME280;2218;51.408;7.208;2023-07-31T03:00:43;99232.34;;;21.49;61.10
4410;BME280;2218;51.408;7.208;2023-07-31T03:03:10;99229.72;;;21.49;61.30
4410;BME280;2218;51.408;7.208;2023-07-31T03:05:37;99227.06;;;21.49;61.58
4410;BME280;2218;51.408;7.208;2023-07-31T03:08:06;99232.34;;;21.49;61.22
4410;BME280;2218;51.408;7.208;2023-07-31T03:10:32;99220.06;;;21.48;61.52
4410;BME280;2218;51.408;7.208;2023-07-31T03:13:00;99217.31;;;21.49;61.34
4410;BME280;2218;51.408;7.208;2023-07-31T03:15:26;99213.13;;;21.47;61.57
4410;BME280;2218;51.408;7.208;2023-07-31T03:17:53;99217.44;;;21.48;61.10
4410;BME280;2218;51.408;7.208;2023-07-31T03:20:20;99210.47;;;21.47;60.99
4410;BME280;2218;51.408;7.208;2023-07-31T03:22:47;99210.47;;;21.47;61.52
4410;BME280;2218;51.408;7.208;2023-07-31T03:25:16;99215.75;;;21.47;61.16
4410;BME280;2218;51.408;7.208;2023-07-31T03:27:42;99220.91;;;21.48;61.51
4410;BME280;2218;51.408;7.208;2023-07-31T03:30:10;99212.16;;;21.48;61.12
4410;BME280;2218;51.408;7.208;2023-07-31T03:32:37;99219.25;;;21.47;61.12
4410;BME280;2218;51.408;7.208;2023-07-31T03:35:05;99217.44;;;21.48;61.38
4410;BME280;2218;51.408;7.208;2023-07-31T03:37:32;99219.25;;;21.47;61.49
4410;BME280;2218;51.408;7.208;2023-07-31T03:39:59;99208.66;;;21.47;61.37
4410;BME280;2218;51.408;7.208;2023-07-31T03:42:27;99215.75;;;21.47;61.04
4410;BME280;2218;51.408;7.208;2023-07-31T03:44:54;99218.41;;;21.47;60.91
4410;BME280;2218;51.408;7.208;2023-07-31T03:47:21;99212.28;;;21.46;61.14
4410;BME280;2218;51.408;7.208;2023-07-31T03:49:48;99210.47;;;21.47;61.43
4410;BME280;2218;51.408;7.208;2023-07-31T03:52:15;99203.53;;;21.46;60.91
4410;BME280;2218;51.408;7.208;2023-07-31T03:54:42;99207.00;;;21.46;61.37
4410;BME280;2218;51.408;7.208;2023-07-31T03:57:10;99206.16;;;21.46;61.27
4410;BME280;2218;51.408;7.208;2023-07-31T03:59:38;99206.16;;;21.46;61.37
4410;BME280;2218;51.408;7.208;2023-07-31T04:02:05;99207.84;;;21.47;61.33
4410;BME280;2218;51.408;7.208;2023-07-31T04:04:32;99203.53;;;21.46;61.33
4410;BME280;2218;51.408;7.208;2023-07-31T04:06:59;99200.88;;;21.46;60.88
4410;BME280;2218;51.408;7.208;2023-07-31T04:09:26;99206.16;;;21.46;61.37
4410;BME280;2218;51.408;7.208;2023-07-31T04:11:53;99206.16;;;21.46;61.39
4410;BME280;2218;51.408;7.208;2023-07-31T04:14:20;99205.34;;;21.45;61.17
4410;BME280;2218;51.408;7.208;2023-07-31T04:16:48;99208.81;;;21.46;61.15
4410;BME280;2218;51.408;7.208;2023-07-31T04:19:16;99210.63;;;21.45;60.99
4410;BME280;2218;51.408;7.208;2023-07-31T04:21:43;99200.03;;;21.45;61.30
4410;BME280;2218;51.408;7.208;2023-07-31T04:24:10;99194.75;;;21.45;61.46
4410;BME280;2218;51.408;7.208;2023-07-31T04:26:37;99197.41;;;21.45;61.32
4410;BME280;2218;51.408;7.208;2023-07-31T04:29:04;99190.31;;;21.46;61.36
4410;BME280;2218;51.408;7.208;2023-07-31T04:31:31;99195.59;;;21.46;60.96
4410;BME280;2218;51.408;7.208;2023-07-31T04:33:59;99201.00;;;21.44;61.39
4410;BME280;2218;51.408;7.208;2023-07-31T04:36:26;99195.59;;;21.46;61.33
4410;BME280;2218;51.408;7.208;2023-07-31T04:38:52;99188.63;;;21.45;61.44
4410;BME280;2218;51.408;7.208;2023-07-31T04:41:19;99196.56;;;21.45;61.39
4410;BME280;2218;51.408;7.208;2023-07-31T04:43:47;99195.59;;;21.46;61.25
4410;BME280;2218;51.408;7.208;2023-07-31T04:46:14;99182.50;;;21.44;61.41
4410;BME280;2218;51.408;7.208;2023-07-31T04:48:40;99188.63;;;21.45;61.38
4410;BME280;2218;51.408;7.208;2023-07-31T04:51:09;99180.69;;;21.45;61.32
4410;BME280;2218;51.408;7.208;2023-07-31T04:53:36;99172.78;;;21.45;61.08
4410;BME280;2218;51.408;7.208;2023-07-31T04:56:03;99177.22;;;21.44;61.24
4410;BME280;2218;51.408;7.208;2023-07-31T04:58:30;99180.69;;;21.45;61.38
4410;BME280;2218;51.408;7.208;2023-07-31T05:00:57;99178.06;;;21.45;60.85
4410;BME280;2218;51.408;7.208;2023-07-31T05:03:24;99172.78;;;21.45;61.30
4410;BME280;2218;51.408;7.208;2023-07-31T05:05:52;99178.06;;;21.45;61.31
4410;BME280;2218;51.408;7.208;2023-07-31T05:08:20;99156.91;;;21.45;61.35
4410;BME280;2218;51.408;7.208;2023-07-31T05:10:47;99165.81;;;21.44;61.01
4410;BME280;2218;51.408;7.208;2023-07-31T05:13:14;99158.00;;;21.42;61.04
4410;BME280;2218;51.408;7.208;2023-07-31T05:15:41;99150.06;;;21.42;60.81
4410;BME280;2218;51.408;7.208;2023-07-31T05:18:08;99145.75;;;21.41;61.09
4410;BME280;2218;51.408;7.208;2023-07-31T05:20:35;99146.59;;;21.41;61.40
4410;BME280;2218;51.408;7.208;2023-07-31T05:23:02;99142.28;;;21.40;61.49
4410;BME280;2218;51.408;7.208;2023-07-31T05:25:30;99142.13;;;21.42;61.34
4410;BME280;2218;51.408;7.208;2023-07-31T05:27:57;99137.69;;;21.42;61.16
4410;BME280;2218;51.408;7.208;2023-07-31T05:30:24;99142.13;;;21.42;61.25
4410;BME280;2218;51.408;7.208;2023-07-31T05:32:51;99132.41;;;21.42;60.77
4410;BME280;2218;51.408;7.208;2023-07-31T05:35:18;99134.34;;;21.40;60.89
4410;BME280;2218;51.408;7.208;2023-07-31T05:37:45;99136.84;;;21.42;61.42
4410;BME280;2218;51.408;7.208;2023-07-31T05:40:12;99134.34;;;21.40;60.86
4410;BME280;2218;51.408;7.208;2023-07-31T05:42:40;99131.72;;;21.40;61.19
4410;BME280;2218;51.408;7.208;2023-07-31T05:45:08;99127.41;;;21.39;61.27
4410;BME280;2218;51.408;7.208;2023-07-31T05:47:35;99130.03;;;21.39;61.32
4410;BME280;2218;51.408;7.208;2023-07-31T05:50:02;99120.31;;;21.40;60.82
4410;BME280;2218;51.408;7.208;2023-07-31T05:52:29;99116.81;;;21.39;61.38
4410;BME280;2218;51.408;7.208;2023-07-31T05:54:56;99122.94;;;21.40;61.33
4410;BME280;2218;51.408;7.208;2023-07-31T05:57:23;99114.19;;;21.39;60.94
4410;BME280;2218;51.408;7.208;2023-07-31T05:59:51;99110.72;;;21.39;61.28
4410;BME280;2218;51.408;7.208;2023-07-31T06:02:20;99103.72;;;21.38;61.30
4410;BME280;2218;51.408;7.208;2023-07-31T06:04:46;99113.34;;;21.39;60.81
4410;BME280;2218;51.408;7.208;2023-07-31T06:07:13;99100.97;;;21.39;61.19
4410;BME280;2218;51.408;7.208;2023-07-31T06:09:40;99104.44;;;21.40;61.08
4410;BME280;2218;51.408;7.208;2023-07-31T06:12:08;99091.38;;;21.38;61.44
4410;BME280;2218;51.408;7.208;2023-07-31T06:14:35;99094.84;;;21.39;60.71
4410;BME280;2218;51.408;7.208;2023-07-31T06:17:04;99086.09;;;21.38;61.19
4410;BME280;2218;51.408;7.208;2023-07-31T06:19:31;99094.00;;;21.38;61.36
4410;BME280;2218;51.408;7.208;2023-07-31T06:21:58;99087.88;;;21.38;61.41
4410;BME280;2218;51.408;7.208;2023-07-31T06:24:24;99087.03;;;21.37;60.96
4410;BME280;2218;51.408;7.208;2023-07-31T06:26:51;99088.72;;;21.38;61.12
4410;BME280;2218;51.408;7.208;2023-07-31T06:29:18;99091.38;;;21.38;60.91
4410;BME280;2218;51.408;7.208;2023-07-31T06:31:45;99091.47;;;21.37;61.15
4410;BME280;2218;51.408;7.208;2023-07-31T06:34:13;99085.22;;;21.38;61.20
4410;BME280;2218;51.408;7.208;2023-07-31T06:36:40;99077.28;;;21.38;61.27
4410;BME280;2218;51.408;7.208;2023-07-31T06:39:07;99088.72;;;21.38;61.28
4410;BME280;2218;51.408;7.208;2023-07-31T06:41:34;99093.16;;;21.38;61.44
4410;BME280;2218;51.408;7.208;2023-07-31T06:44:05;99092.31;;;21.37;61.07
4410;BME280;2218;51.408;7.208;2023-07-31T06:46:32;99080.78;;;21.38;60.83
4410;BME280;2218;51.408;7.208;2023-07-31T06:48:59;99087.88;;;21.38;60.91
4410;BME280;2218;51.408;7.208;2023-07-31T06:51:27;99087.03;;;21.37;61.15
4410;BME280;2218;51.408;7.208;2023-07-31T06:53:57;99084.38;;;21.37;60.83
4410;BME280;2218;51.408;7.208;2023-07-31T06:56:24;99084.38;;;21.37;61.10
4410;BME280;2218;51.408;7.208;2023-07-31T06:58:51;99087.03;;;21.37;61.34
4410;BME280;2218;51.408;7.208;2023-07-31T07:01:18;99078.16;;;21.38;61.17
4410;BME280;2218;51.408;7.208;2023-07-31T07:03:45;99078.16;;;21.38;60.95
4410;BME280;2218;51.408;7.208;2023-07-31T07:06:12;99080.78;;;21.38;61.26
4410;BME280;2218;51.408;7.208;2023-07-31T07:08:40;99079.09;;;21.37;61.13
4410;BME280;2218;51.408;7.208;2023-07-31T07:11:07;99083.44;;;21.38;61.50
4410;BME280;2218;51.408;7.208;2023-07-31T07:13:34;99072.88;;;21.38;61.67
4410;BME280;2218;51.408;7.208;2023-07-31T07:16:01;99079.00;;;21.39;61.22
4410;BME280;2218;51.408;7.208;2023-07-31T07:18:28;99081.50;;;21.40;61.33
4410;BME280;2218;51.408;7.208;2023-07-31T07:20:56;99073.56;;;21.40;61.57
4410;BME280;2218;51.408;7.208;2023-07-31T07:23:24;99090.50;;;21.38;61.57
4410;BME280;2218;51.408;7.208;2023-07-31T07:25:53;99081.63;;;21.39;61.49
4410;BME280;2218;51.408;7.208;2023-07-31T07:28:20;99084.28;;;21.39;61.29
4410;BME280;2218;51.408;7.208;2023-07-31T07:30:51;99078.16;;;21.38;61.52
4410;BME280;2218;51.408;7.208;2023-07-31T07:33:19;99079.00;;;21.39;61.64
4410;BME280;2218;51.408;7.208;2023-07-31T07:35:46;99083.44;;;21.38;61.88
4410;BME280;2218;51.408;7.208;2023-07-31T07:38:14;99077.19;;;21.39;61.49
4410;BME280;2218;51.408;7.208;2023-07-31T07:40:41;99072.88;;;21.38;61.64
4410;BME280;2218;51.408;7.208;2023-07-31T07:43:09;99079.00;;;21.39;61.34
4410;BME280;2218;51.408;7.208;2023-07-31T07:45:36;99070.22;;;21.38;61.76
4410;BME280;2218;51.408;7.208;2023-07-31T07:48:04;99066.72;;;21.38;61.33
4410;BME280;2218;51.408;7.208;2023-07-31T07:50:31;99072.88;;;21.38;61.41
4410;BME280;2218;51.408;7.208;2023-07-31T07:52:57;99075.50;;;21.38;61.65
4410;BME280;2218;51.408;7.208;2023-07-31T07:55:24;99057.84;;;21.39;61.19
4410;BME280;2218;51.408;7.208;2023-07-31T07:57:51;99074.66;;;21.38;61.70
4410;BME280;2218;51.408;7.208;2023-07-31T08:00:20;99067.59;;;21.38;61.54
4410;BME280;2218;51.408;7.208;2023-07-31T08:02:46;99063.97;;;21.39;61.83
4410;BME280;2218;51.408;7.208;2023-07-31T08:05:14;99065.63;;;21.40;61.49
4410;BME280;2218;51.408;7.208;2023-07-31T08:07:43;99070.09;;;21.40;61.69
4410;BME280;2218;51.408;7.208;2023-07-31T08:10:10;99057.69;;;21.40;61.60
4410;BME280;2218;51.408;7.208;2023-07-31T08:12:37;99062.97;;;21.40;61.63
4410;BME280;2218;51.408;7.208;2023-07-31T08:15:05;99062.16;;;21.40;61.69
4410;BME280;2218;51.408;7.208;2023-07-31T08:17:34;99060.50;;;21.39;61.89
4410;BME280;2218;51.408;7.208;2023-07-31T08:20:01;99048.94;;;21.40;61.91
4410;BME280;2218;51.408;7.208;2023-07-31T08:22:28;99059.50;;;21.40;61.65
4410;BME280;2218;51.408;7.208;2023-07-31T08:24:55;99055.19;;;21.39;61.57
4410;BME280;2218;51.408;7.208;2023-07-31T08:27:22;99048.09;;;21.39;61.49
4410;BME280;2218;51.408;7.208;2023-07-31T08:29:49;99048.09;;;21.39;61.50
4410;BME280;2218;51.408;7.208;2023-07-31T08:32:18;99047.28;;;21.39;61.65
4410;BME280;2218;51.408;7.208;2023-07-31T08:34:46;99042.81;;;21.39;61.75
4410;BME280;2218;51.408;7.208;2023-07-31T08:37:13;99051.72;;;21.38;61.50
4410;BME280;2218;51.408;7.208;2023-07-31T08:39:40;99058.69;;;21.39;61.34
4410;BME280;2218;51.408;7.208;2023-07-31T08:42:08;99047.28;;;21.39;61.47
4410;BME280;2218;51.408;7.208;2023-07-31T08:44:37;99029.59;;;21.39;61.63
4410;BME280;2218;51.408;7.208;2023-07-31T08:47:05;99044.47;;;21.40;61.83
4410;BME280;2218;51.408;7.208;2023-07-31T08:49:34;99044.47;;;21.40;61.40
4410;BME280;2218;51.408;7.208;2023-07-31T08:52:04;99040.03;;;21.41;61.59
4410;BME280;2218;51.408;7.208;2023-07-31T08:54:32;99036.56;;;21.40;61.81
4410;BME280;2218;51.408;7.208;2023-07-31T08:56:59;99030.28;;;21.41;61.30
4410;BME280;2218;51.408;7.208;2023-07-31T08:59:29;99035.56;;;21.41;61.44
4410;BME280;2218;51.408;7.208;2023-07-31T09:02:02;99045.31;;;21.41;61.76
4410;BME280;2218;51.408;7.208;2023-07-31T09:04:32;99046.16;;;21.41;61.44
4410;BME280;2218;51.408;7.208;2023-07-31T09:07:03;99036.41;;;21.42;61.48
4410;BME280;2218;51.408;7.208;2023-07-31T09:09:30;99039.88;;;21.42;61.89
4410;BME280;2218;51.408;7.208;2023-07-31T09:11:58;99033.66;;;21.44;61.72
4410;BME280;2218;51.408;7.208;2023-07-31T09:14:26;99026.66;;;21.42;61.49
4410;BME280;2218;51.408;7.208;2023-07-31T09:16:54;99032.78;;;21.43;61.81
4410;BME280;2218;51.408;7.208;2023-07-31T09:19:26;99052.97;;;21.44;61.23
4410;BME280;2218;51.408;7.208;2023-07-31T09:21:53;99044.22;;;21.44;61.45
4410;BME280;2218;51.408;7.208;2023-07-31T09:24:29;99042.53;;;21.42;61.69
4410;BME280;2218;51.408;7.208;2023-07-31T09:26:58;99040.72;;;21.43;61.68
4410;BME280;2218;51.408;7.208;2023-07-31T09:29:28;99044.22;;;21.44;61.77
4410;BME280;2218;51.408;7.208;2023-07-31T09:31:55;99042.53;;;21.42;61.95
4410;BME280;2218;51.408;7.208;2023-07-31T09:34:38;99043.34;;;21.43;61.94
4410;BME280;2218;51.408;7.208;2023-07-31T09:37:05;99035.31;;;21.45;61.99
4410;BME280;2218;51.408;7.208;2023-07-31T09:39:46;99041.44;;;21.45;61.54
4410;BME280;2218;51.408;7.208;2023-07-31T09:42:13;99031.69;;;21.46;61.94
4410;BME280;2218;51.408;7.208;2023-07-31T09:44:40;99037.81;;;21.46;61.55
4410;BME280;2218;51.408;7.208;2023-07-31T09:47:22;99026.25;;;21.47;61.80
4410;BME280;2218;51.408;7.208;2023-07-31T09:49:50;99030.56;;;21.48;61.64
4410;BME280;2218;51.408;7.208;2023-07-31T09:52:17;99027.91;;;21.48;61.54
4410;BME280;2218;51.408;7.208;2023-07-31T09:54:45;99021.81;;;21.48;62.03
4410;BME280;2218;51.408;7.208;2023-07-31T09:57:13;99028.78;;;21.49;62.14
4410;BME280;2218;51.408;7.208;2023-07-31T09:59:42;99022.63;;;21.48;61.97
4410;BME280;2218;51.408;7.208;2023-07-31T10:02:20;99029.72;;;21.48;62.19
4410;BME280;2218;51.408;7.208;2023-07-31T10:04:50;99018.22;;;21.49;61.56
4410;BME280;2218;51.408;7.208;2023-07-31T10:07:18;99026.16;;;21.49;62.22
4410;BME280;2218;51.408;7.208;2023-07-31T10:09:49;99019.88;;;21.50;61.73
4410;BME280;2218;51.408;7.208;2023-07-31T10:12:19;99019.88;;;21.50;61.88
4410;BME280;2218;51.408;7.208;2023-07-31T10:14:50;99021.69;;;21.49;62.25
4410;BME280;2218;51.408;7.208;2023-07-31T10:17:18;99015.56;;;21.49;62.23
4410;BME280;2218;51.408;7.208;2023-07-31T10:19:48;99014.59;;;21.50;62.10
4410;BME280;2218;51.408;7.208;2023-07-31T10:22:16;99013.59;;;21.51;62.00
4410;BME280;2218;51.408;7.208;2023-07-31T10:24:46;99020.56;;;21.52;62.31
4410;BME280;2218;51.408;7.208;2023-07-31T10:27:14;99011.94;;;21.50;62.25
4410;BME280;2218;51.408;7.208;2023-07-31T10:29:45;99017.22;;;21.50;62.44
4410;BME280;2218;51.408;7.208;2023-07-31T10:32:16;99008.31;;;21.51;61.93
4410;BME280;2218;51.408;7.208;2023-07-31T10:34:44;99009.16;;;21.51;62.21
4410;BME280;2218;51.408;7.208;2023-07-31T10:37:23;99009.97;;;21.52;62.50
4410;BME280;2218;51.408;7.208;2023-07-31T10:39:59;99017.09;;;21.51;62.32
4410;BME280;2218;51.408;7.208;2023-07-31T10:42:33;99005.53;;;21.52;61.93
4410;BME280;2218;51.408;7.208;2023-07-31T10:45:05;99014.44;;;21.51;62.08
4410;BME280;2218;51.408;7.208;2023-07-31T10:47:37;99019.72;;;21.51;62.08
4410;BME280;2218;51.408;7.208;2023-07-31T10:50:14;99015.28;;;21.52;61.96
4410;BME280;2218;51.408;7.208;2023-07-31T10:52:47;99018.91;;;21.51;62.59
4410;BME280;2218;51.408;7.208;2023-07-31T10:55:24;99015.28;;;21.52;62.34
4410;BME280;2218;51.408;7.208;2023-07-31T10:57:53;99009.97;;;21.52;62.68
4410;BME280;2218;51.408;7.208;2023-07-31T11:00:25;99012.63;;;21.52;62.46
4410;BME280;2218;51.408;7.208;2023-07-31T11:03:06;99020.56;;;21.52;62.40
4410;BME280;2218;51.408;7.208;2023-07-31T11:05:49;99013.59;;;21.51;62.04
4410;BME280;2218;51.408;7.208;2023-07-31T11:08:19;98997.75;;;21.51;62.60
4410;BME280;2218;51.408;7.208;2023-07-31T11:10:51;99007.50;;;21.50;62.09
4410;BME280;2218;51.408;7.208;2023-07-31T11:13:39;99004.00;;;21.50;62.05
4410;BME280;2218;51.408;7.208;2023-07-31T11:16:06;99005.00;;;21.49;62.54
4410;BME280;2218;51.408;7.208;2023-07-31T11:18:35;99001.38;;;21.50;62.54
4410;BME280;2218;51.408;7.208;2023-07-31T11:21:02;99006.66;;;21.50;62.18
4410;BME280;2218;51.408;7.208;2023-07-31T11:23:30;99007.50;;;21.50;62.20
4410;BME280;2218;51.408;7.208;2023-07-31T11:26:00;99005.69;;;21.51;62.43
4410;BME280;2218;51.408;7.208;2023-07-31T11:28:34;99005.00;;;21.49;62.24
4410;BME280;2218;51.408;7.208;2023-07-31T11:31:02;99003.19;;;21.49;62.55
4410;BME280;2218;51.408;7.208;2023-07-31T11:33:30;99001.38;;;21.50;62.57
4410;BME280;2218;51.408;7.208;2023-07-31T11:35:57;99003.28;;;21.48;62.73
4410;BME280;2218;51.408;7.208;2023-07-31T11:38:25;98999.72;;;21.49;62.21
4410;BME280;2218;51.408;7.208;2023-07-31T11:40:53;99005.81;;;21.49;62.19
4410;BME280;2218;51.408;7.208;2023-07-31T11:43:22;98996.91;;;21.50;62.13
4410;BME280;2218;51.408;7.208;2023-07-31T11:45:53;98995.25;;;21.49;62.13
4410;BME280;2218;51.408;7.208;2023-07-31T11:48:22;98992.47;;;21.51;62.11
4410;BME280;2218;51.408;7.208;2023-07-31T11:50:51;98993.44;;;21.50;62.46
4410;BME280;2218;51.408;7.208;2023-07-31T11:53:25;98987.16;;;21.51;62.64
4410;BME280;2218;51.408;7.208;2023-07-31T11:55:54;98990.66;;;21.51;62.29
4410;BME280;2218;51.408;7.208;2023-07-31T11:58:22;98987.16;;;21.51;62.59
4410;BME280;2218;51.408;7.208;2023-07-31T12:00:52;98991.63;;;21.50;62.18
4410;BME280;2218;51.408;7.208;2023-07-31T12:03:19;98981.88;;;21.51;62.31
4410;BME280;2218;51.408;7.208;2023-07-31T12:05:47;98988.00;;;21.51;62.52
4410;BME280;2218;51.408;7.208;2023-07-31T12:08:14;98983.56;;;21.52;62.58
4410;BME280;2218;51.408;7.208;2023-07-31T12:10:42;98988.84;;;21.52;62.18
4410;BME280;2218;51.408;7.208;2023-07-31T12:13:12;98986.06;;;21.53;62.51
4410;BME280;2218;51.408;7.208;2023-07-31T12:15:46;98983.56;;;21.52;62.47
4410;BME280;2218;51.408;7.208;2023-07-31T12:18:19;98984.38;;;21.52;62.61
4410;BME280;2218;51.408;7.208;2023-07-31T12:20:48;98979.25;;;21.51;62.79
4410;BME280;2218;51.408;7.208;2023-07-31T12:23:17;98978.25;;;21.52;62.48
4410;BME280;2218;51.408;7.208;2023-07-31T12:25:44;98986.19;;;21.52;62.43
4410;BME280;2218;51.408;7.208;2023-07-31T12:28:11;98981.88;;;21.51;62.72
4410;BME280;2218;51.408;7.208;2023-07-31T12:30:40;98984.53;;;21.51;62.53
4410;BME280;2218;51.408;7.208;2023-07-31T12:33:14;98983.69;;;21.50;62.48
4410;BME280;2218;51.408;7.208;2023-07-31T12:35:44;98981.88;;;21.51;62.79
4410;BME280;2218;51.408;7.208;2023-07-31T12:38:12;98981.88;;;21.51;62.80
4410;BME280;2218;51.408;7.208;2023-07-31T12:40:41;98980.06;;;21.51;62.33
4410;BME280;2218;51.408;7.208;2023-07-31T12:43:08;98975.75;;;21.50;62.73
4410;BME280;2218;51.408;7.208;2023-07-31T12:45:35;98972.13;;;21.51;62.79
4410;BME280;2218;51.408;7.208;2023-07-31T12:48:02;98976.59;;;21.51;62.33
4410;BME280;2218;51.408;7.208;2023-07-31T12:50:31;98972.13;;;21.51;62.41
4410;BME280;2218;51.408;7.208;2023-07-31T12:52:58;98973.97;;;21.51;62.44
4410;BME280;2218;51.408;7.208;2023-07-31T12:55:25;98969.50;;;21.51;62.35
4410;BME280;2218;51.408;7.208;2023-07-31T12:57:52;98971.31;;;21.51;62.49
4410;BME280;2218;51.408;7.208;2023-07-31T13:00:19;98958.09;;;21.51;62.80
4410;BME280;2218;51.408;7.208;2023-07-31T13:02:46;98953.78;;;21.50;62.29
4410;BME280;2218;51.408;7.208;2023-07-31T13:05:13;98963.38;;;21.51;62.90
4410;BME280;2218;51.408;7.208;2023-07-31T13:07:41;98950.16;;;21.51;62.65
4410;BME280;2218;51.408;7.208;2023-07-31T13:10:09;98943.91;;;21.52;62.63
4410;BME280;2218;51.408;7.208;2023-07-31T13:12:36;98943.06;;;21.51;62.90
4410;BME280;2218;51.408;7.208;2023-07-31T13:15:04;98943.91;;;21.52;62.38
4410;BME280;2218;51.408;7.208;2023-07-31T13:17:31;98934.28;;;21.51;62.87
4410;BME280;2218;51.408;7.208;2023-07-31T13:19:59;98940.41;;;21.51;62.50
4410;BME280;2218;51.408;7.208;2023-07-31T13:22:26;98930.69;;;21.52;62.96
4410;BME280;2218;51.408;7.208;2023-07-31T13:24:54;98929.00;;;21.51;62.90
4410;BME280;2218;51.408;7.208;2023-07-31T13:27:21;98930.69;;;21.52;63.07
4410;BME280;2218;51.408;7.208;2023-07-31T13:29:51;98913.97;;;21.51;62.42